Time;durP1;ratioP1;P1;durP2;ratioP2;P2;SDS_P1;SDS_P2;PMS_P1;PMS_P2;Temp;Humidity;BMP_temperature;BMP_pressure;BME280_temperature;BME280_humidity;BME280_pressure;Samples;Min_cycle;Max_cycle;Signal;HPM_P1;HPM_P2
2023/05/27 00:02:06;;;;;;;8.73;4.30;;;20.10;99.90;;;;;;5091009;28;20031;-70
2023/05/27 00:04:32;;;;;;;9.32;5.00;;;20.20;99.90;;;;;;5071335;28;20111;-70
2023/05/27 00:06:58;;;;;;;7.97;4.97;;;20.20;99.90;;;;;;5090615;28;20051;-72
2023/05/27 00:09:25;;;;;;;8.35;5.38;;;20.20;99.90;;;;;;5089129;28;20109;-71
2023/05/27 00:11:51;;;;;;;14.18;4.95;;;20.20;99.90;;;;;;5089481;28;20046;-70
2023/05/27 00:14:17;;;;;;;11.90;5.05;;;20.20;99.90;;;;;;5071023;28;20031;-71
2023/05/27 00:16:43;;;;;;;9.43;4.45;;;20.20;99.90;;;;;;5090533;28;20086;-71
2023/05/27 00:19:09;;;;;;;10.85;5.05;;;20.20;99.90;;;;;;5090297;28;20093;-71
2023/05/27 00:21:36;;;;;;;10.05;5.15;;;20.20;99.90;;;;;;5079863;28;20028;-71
2023/05/27 00:24:03;;;;;;;10.02;4.85;;;20.20;99.90;;;;;;5069669;28;20432;-71
2023/05/27 00:26:29;;;;;;;8.02;5.00;;;20.20;99.90;;;;;;5089967;28;20016;-70
2023/05/27 00:28:55;;;;;;;9.80;5.07;;;20.20;99.90;;;;;;5090207;28;20102;-70
2023/05/27 00:31:22;;;;;;;11.80;5.30;;;20.10;99.90;;;;;;5090235;28;20499;-70
2023/05/27 00:33:49;;;;;;;8.95;5.03;;;20.10;99.90;;;;;;5090172;28;20035;-71
2023/05/27 00:36:15;;;;;;;7.70;4.80;;;20.10;99.90;;;;;;5090260;28;20094;-71
2023/05/27 00:38:42;;;;;;;10.27;5.32;;;20.10;99.90;;;;;;5089659;28;20020;-70
2023/05/27 00:41:12;;;;;;;9.55;5.22;;;20.10;99.90;;;;;;5071193;28;20027;-70
2023/05/27 00:43:38;;;;;;;7.80;5.07;;;20.00;99.90;;;;;;5089850;28;20040;-71
2023/05/27 00:46:05;;;;;;;6.95;4.85;;;20.10;99.90;;;;;;5089589;28;20051;-70
2023/05/27 00:48:31;;;;;;;9.93;4.85;;;20.10;99.90;;;;;;5105086;28;20541;-70
2023/05/27 00:50:57;;;;;;;7.90;5.00;;;20.10;99.90;;;;;;5089595;28;20020;-71
2023/05/27 00:53:24;;;;;;;8.52;5.18;;;20.00;99.90;;;;;;5089682;28;20028;-70
2023/05/27 00:55:54;;;;;;;;;;;19.90;99.90;;;;;;5090041;28;20484;-71
2023/05/27 00:58:23;;;;;;;11.93;5.32;;;19.90;99.90;;;;;;5089661;28;20415;-70
2023/05/27 01:00:50;;;;;;;9.18;5.40;;;19.90;99.90;;;;;;5089515;28;20034;-71
2023/05/27 01:03:16;;;;;;;9.07;5.45;;;19.90;99.90;;;;;;5087831;28;20047;-70
2023/05/27 01:05:42;;;;;;;9.27;5.10;;;19.80;99.90;;;;;;5070877;28;20513;-70
2023/05/27 01:08:46;;;;;;;9.70;5.50;;;19.80;99.90;;;;;;5070640;28;20053;-70
2023/05/27 01:11:14;;;;;;;9.27;4.78;;;19.80;99.90;;;;;;5069392;28;20020;-70
2023/05/27 01:13:46;;;;;;;9.57;5.47;;;19.80;99.90;;;;;;5084427;28;20024;-70
2023/05/27 01:16:13;;;;;;;8.80;5.03;;;19.80;99.90;;;;;;5087982;28;20024;-70
2023/05/27 01:18:45;;;;;;;11.98;5.07;;;19.80;99.90;;;;;;5070878;28;20036;-70
2023/05/27 01:21:14;;;;;;;9.38;5.57;;;19.80;99.90;;;;;;5089479;28;20455;-70
2023/05/27 01:23:44;;;;;;;12.85;5.68;;;19.80;99.90;;;;;;5088350;28;20050;-71
2023/05/27 01:26:10;;;;;;;9.93;5.40;;;19.80;99.90;;;;;;5074106;28;20350;-71
2023/05/27 01:28:37;;;;;;;6.80;5.00;;;19.90;99.90;;;;;;5083170;28;20032;-70
2023/05/27 01:31:22;;;;;;;8.02;5.00;;;19.90;99.90;;;;;;5088877;28;20032;-69
2023/05/27 01:34:00;;;;;;;9.23;5.15;;;19.90;99.90;;;;;;5088692;28;20460;-71
2023/05/27 01:36:31;;;;;;;14.43;5.00;;;19.90;99.90;;;;;;5071047;28;20541;-70
2023/05/27 01:38:58;;;;;;;9.18;5.10;;;19.90;99.90;;;;;;5089355;28;20036;-71
2023/05/27 01:41:26;;;;;;;9.77;4.97;;;20.00;99.90;;;;;;5088251;28;20091;-69
2023/05/27 01:43:53;;;;;;;8.55;4.40;;;20.00;99.90;;;;;;5088528;28;20229;-70
2023/05/27 01:46:19;;;;;;;7.82;5.13;;;19.90;99.90;;;;;;5088548;28;20025;-70
2023/05/27 01:48:45;;;;;;;9.57;4.75;;;19.90;99.90;;;;;;5088055;28;20036;-69
2023/05/27 01:51:11;;;;;;;10.85;5.25;;;19.90;99.90;;;;;;5069770;28;20390;-72
2023/05/27 01:53:37;;;;;;;9.63;5.32;;;19.90;99.90;;;;;;5070045;28;20038;-70
2023/05/27 01:56:03;;;;;;;10.45;5.43;;;19.90;99.90;;;;;;5088136;28;20059;-70
2023/05/27 01:58:29;;;;;;;7.95;4.50;;;19.90;99.90;;;;;;5068920;28;20118;-71
2023/05/27 02:00:56;;;;;;;10.75;5.25;;;19.90;99.90;;;;;;5068141;28;20111;-70
2023/05/27 02:03:22;;;;;;;9.50;5.70;;;19.80;99.90;;;;;;5088209;28;20024;-70
2023/05/27 02:05:48;;;;;;;13.10;5.43;;;19.80;99.90;;;;;;5088429;28;20090;-69
2023/05/27 02:08:14;;;;;;;9.07;5.40;;;19.80;99.90;;;;;;5088899;28;20036;-69
2023/05/27 02:10:40;;;;;;;10.65;5.10;;;19.70;99.90;;;;;;5087490;28;20180;-70
2023/05/27 02:13:06;;;;;;;9.88;5.00;;;19.70;99.90;;;;;;5087166;28;20024;-70
2023/05/27 02:15:32;;;;;;;12.18;5.60;;;19.80;99.90;;;;;;5088412;28;20035;-71
2023/05/27 02:17:59;;;;;;;8.57;5.20;;;19.80;99.90;;;;;;5092439;28;20016;-70
2023/05/27 02:20:25;;;;;;;8.13;5.50;;;19.80;99.90;;;;;;5092554;28;20064;-70
2023/05/27 02:22:51;;;;;;;8.85;4.85;;;19.80;99.90;;;;;;5073173;28;20422;-70
2023/05/27 02:25:17;;;;;;;13.40;4.90;;;19.90;99.90;;;;;;5091778;28;20076;-70
2023/05/27 02:27:48;;;;;;;9.30;4.68;;;19.80;99.90;;;;;;5092755;28;20097;-70
2023/05/27 02:30:15;;;;;;;13.55;5.25;;;19.80;99.90;;;;;;5073970;28;20404;-71
2023/05/27 02:32:41;;;;;;;10.32;5.20;;;19.90;99.90;;;;;;5091149;28;20020;-70
2023/05/27 02:35:08;;;;;;;;;;;19.80;99.90;;;;;;5076474;28;20024;-70
2023/05/27 02:37:34;;;;;;;9.75;5.47;;;19.90;99.90;;;;;;5073475;28;19904;-70
2023/05/27 02:40:00;;;;;;;8.40;4.95;;;19.90;99.90;;;;;;5091048;28;20035;-72
2023/05/27 02:42:26;;;;;;;11.27;5.35;;;19.80;99.90;;;;;;5087701;28;20031;-71
2023/05/27 02:44:52;;;;;;;9.02;5.40;;;19.80;99.90;;;;;;5087949;28;20032;-70
2023/05/27 02:47:19;;;;;;;11.23;5.10;;;19.90;99.90;;;;;;5086065;28;20373;-71
2023/05/27 02:49:45;;;;;;;10.02;4.70;;;19.90;99.90;;;;;;5077287;28;20059;-70
2023/05/27 02:52:11;;;;;;;12.00;4.93;;;19.80;99.90;;;;;;5090805;28;20224;-71
2023/05/27 02:54:37;;;;;;;8.15;5.13;;;19.80;99.90;;;;;;5090970;28;20023;-69
2023/05/27 02:57:06;;;;;;;7.57;4.93;;;19.90;99.90;;;;;;5082868;28;20071;-69
2023/05/27 02:59:32;;;;;;;7.70;4.85;;;19.80;99.90;;;;;;5083306;28;20938;-70
2023/05/27 03:01:58;;;;;;;7.82;4.95;;;19.80;99.90;;;;;;5091441;28;20031;-69
2023/05/27 03:04:25;;;;;;;10.68;5.25;;;19.80;99.90;;;;;;5091736;28;20165;-69
2023/05/27 03:06:52;;;;;;;9.82;5.15;;;19.90;99.90;;;;;;5088637;28;20020;-70
2023/05/27 03:09:18;;;;;;;7.30;4.70;;;19.70;99.90;;;;;;5089452;28;20047;-71
2023/05/27 03:11:44;;;;;;;8.73;4.85;;;19.70;99.90;;;;;;5091075;28;20016;-70
2023/05/27 03:14:10;;;;;;;9.50;5.22;;;19.80;99.90;;;;;;5071195;28;20039;-70
2023/05/27 03:16:36;;;;;;;10.68;5.00;;;19.70;99.90;;;;;;5090493;28;20409;-72
2023/05/27 03:19:03;;;;;;;8.98;5.32;;;19.70;99.90;;;;;;5088275;28;20057;-72
2023/05/27 03:21:29;;;;;;;;;;;19.80;99.90;;;;;;5091768;28;20051;-71
2023/05/27 03:23:55;;;;;;;9.50;5.05;;;19.80;99.90;;;;;;5091887;28;19956;-71
2023/05/27 03:26:21;;;;;;;14.23;5.15;;;19.80;99.90;;;;;;5091674;28;20036;-72
2023/05/27 03:28:47;;;;;;;9.00;5.30;;;19.90;99.90;;;;;;5089975;28;20055;-70
2023/05/27 03:31:13;;;;;;;7.88;4.55;;;19.90;99.90;;;;;;5084246;28;20400;-70
2023/05/27 03:33:39;;;;;;;10.57;5.03;;;19.80;99.90;;;;;;5086372;28;20456;-70
2023/05/27 03:36:07;;;;;;;7.68;4.95;;;19.80;99.90;;;;;;5091571;28;20032;-70
2023/05/27 03:38:33;;;;;;;8.68;5.07;;;19.90;99.90;;;;;;5091563;28;20028;-71
2023/05/27 03:40:59;;;;;;;9.30;5.18;;;19.90;99.90;;;;;;5091256;28;20021;-72
2023/05/27 03:43:25;;;;;;;13.63;5.18;;;19.90;99.90;;;;;;5092658;28;20368;-70
2023/05/27 03:45:51;;;;;;;8.82;5.22;;;19.90;99.90;;;;;;5088910;28;20451;-69
2023/05/27 03:48:17;;;;;;;10.57;5.05;;;19.80;99.90;;;;;;5087216;28;20036;-69
2023/05/27 03:50:50;;;;;;;9.57;4.50;;;19.80;99.90;;;;;;5092116;28;20036;-69
2023/05/27 03:53:16;;;;;;;9.90;4.45;;;19.80;99.90;;;;;;5090333;28;20024;-70
2023/05/27 03:55:42;;;;;;;9.05;4.95;;;19.80;99.90;;;;;;5069175;28;20398;-69
2023/05/27 03:58:08;;;;;;;7.45;4.82;;;19.80;99.90;;;;;;5085663;28;20043;-70
2023/05/27 04:00:36;;;;;;;11.32;4.80;;;19.80;99.90;;;;;;5086049;28;20162;-70
2023/05/27 04:03:02;;;;;;;6.72;4.88;;;19.80;99.90;;;;;;5097267;28;20028;-71
2023/05/27 04:05:28;;;;;;;9.90;4.80;;;19.90;99.90;;;;;;5077300;28;20024;-72
2023/05/27 04:07:54;;;;;;;9.15;4.80;;;19.90;99.90;;;;;;5081565;28;20336;-70
2023/05/27 04:10:20;;;;;;;11.65;5.53;;;19.90;99.90;;;;;;5089636;28;20377;-71
2023/05/27 04:12:46;;;;;;;10.45;5.15;;;19.80;99.90;;;;;;5091644;28;20416;-70
2023/05/27 04:15:12;;;;;;;8.52;5.00;;;19.90;99.90;;;;;;5090049;28;20055;-72
2023/05/27 04:17:38;;;;;;;10.73;5.78;;;19.70;99.90;;;;;;5091402;28;20044;-71
2023/05/27 04:20:13;;;;;;;9.45;5.28;;;19.70;99.90;;;;;;5084964;28;20400;-70
2023/05/27 04:22:43;;;;;;;7.72;4.80;;;19.70;99.90;;;;;;5084359;28;20035;-71
2023/05/27 04:25:09;;;;;;;9.30;5.10;;;19.70;99.90;;;;;;5091416;28;20113;-70
2023/05/27 04:27:39;;;;;;;10.57;4.72;;;19.70;99.90;;;;;;5092400;28;20039;-70
2023/05/27 04:30:08;;;;;;;13.15;5.28;;;19.70;99.90;;;;;;5091778;28;20036;-70
2023/05/27 04:32:37;;;;;;;9.98;5.38;;;19.60;99.90;;;;;;5074265;28;20064;-71
2023/05/27 04:35:08;;;;;;;8.57;4.90;;;19.60;99.90;;;;;;5073638;28;20083;-70
2023/05/27 04:37:36;;;;;;;45.63;7.97;;;19.70;99.90;;;;;;5074255;28;20024;-70
2023/05/27 04:40:04;;;;;;;7.15;4.78;;;19.80;99.90;;;;;;5091177;28;20124;-70
2023/05/27 04:42:32;;;;;;;9.05;4.90;;;20.00;99.90;;;;;;5072506;28;20024;-71
2023/05/27 04:45:00;;;;;;;8.82;5.45;;;20.10;99.90;;;;;;5072534;28;20031;-70
2023/05/27 04:47:26;;;;;;;7.25;4.80;;;20.10;99.90;;;;;;5091541;28;20024;-72
2023/05/27 04:49:52;;;;;;;10.52;4.90;;;20.20;99.90;;;;;;5092501;28;20039;-76
2023/05/27 04:52:21;;;;;;;6.80;4.88;;;20.10;99.90;;;;;;5091657;28;20026;-75
2023/05/27 04:54:47;;;;;;;9.73;4.82;;;20.20;99.90;;;;;;5073873;28;20024;-76
2023/05/27 04:57:18;;;;;;;9.98;4.97;;;20.20;99.90;;;;;;5088257;28;20020;-75
2023/05/27 05:00:13;;;;;;;7.68;4.68;;;20.20;99.90;;;;;;5091323;28;20040;-75
2023/05/27 05:02:34;;;;;;;9.52;4.70;;;20.30;99.90;;;;;;5090474;28;20438;-75
2023/05/27 05:05:02;;;;;;;;;;;21.10;99.90;;;;;;5088653;28;20056;-75
2023/05/27 05:07:29;;;;;;;7.53;4.43;;;22.30;99.90;;;;;;5090471;28;19938;-79
2023/05/27 05:09:55;;;;;;;;;;;23.70;99.90;;;;;;5091205;28;20054;-80
2023/05/27 05:12:22;;;;;;;6.63;3.75;;;24.50;99.90;;;;;;5090237;28;19908;-80
2023/05/27 05:14:48;;;;;;;;;;;25.20;99.90;;;;;;5090150;28;20028;-80
2023/05/27 05:17:14;;;;;;;;;;;25.70;99.90;;;;;;5089413;28;20054;-79
2023/05/27 05:19:40;;;;;;;8.18;3.47;;;26.60;99.90;;;;;;5104837;28;19912;-78
2023/05/27 05:22:06;;;;;;;7.70;3.97;;;26.90;99.90;;;;;;5090352;28;20105;-79
2023/05/27 05:24:32;;;;;;;7.53;3.67;;;27.00;99.90;;;;;;5091139;28;20027;-79
2023/05/27 05:26:58;;;;;;;5.78;3.50;;;27.70;99.90;;;;;;5090079;28;20043;-79
2023/05/27 05:29:24;;;;;;;6.40;3.20;;;27.70;99.90;;;;;;5088859;28;20046;-79
2023/05/27 05:31:50;;;;;;;5.28;3.50;;;27.80;99.90;;;;;;5072013;28;20036;-77
2023/05/27 05:34:16;;;;;;;8.80;3.65;;;28.00;99.90;;;;;;5071810;28;20138;-78
2023/05/27 05:36:42;;;;;;;9.18;3.50;;;28.00;99.90;;;;;;5088921;28;20054;-78
2023/05/27 05:39:08;;;;;;;7.95;3.20;;;28.50;99.90;;;;;;5089709;28;20150;-78
2023/05/27 05:41:34;;;;;;;;;;;29.90;99.90;;;;;;5090183;28;20024;-79
2023/05/27 05:44:00;;;;;;;6.20;3.10;;;29.80;99.90;;;;;;5105131;28;20012;-79
2023/05/27 05:46:26;;;;;;;;;;;29.90;99.90;;;;;;5087360;28;20020;-78
2023/05/27 05:48:53;;;;;;;5.50;2.90;;;30.40;99.90;;;;;;5089720;28;19919;-77
2023/05/27 05:51:19;;;;;;;6.60;3.15;;;30.40;99.90;;;;;;5090412;28;20116;-76
2023/05/27 05:53:45;;;;;;;7.80;3.20;;;30.70;99.90;;;;;;5092152;28;20048;-75
2023/05/27 05:56:11;;;;;;;;;;;31.00;99.90;;;;;;5091928;28;20040;-76
2023/05/27 05:58:37;;;;;;;7.47;2.78;;;31.10;99.90;;;;;;5093506;28;19996;-78
2023/05/27 06:01:04;;;;;;;6.35;3.00;;;31.20;99.90;;;;;;5085474;28;20218;-78
2023/05/27 06:03:30;;;;;;;6.68;2.97;;;31.60;99.90;;;;;;5089506;28;20020;-77
2023/05/27 06:05:56;;;;;;;4.47;2.60;;;31.90;99.90;;;;;;5092566;28;20016;-77
2023/05/27 06:08:22;;;;;;;5.57;2.50;;;31.60;99.90;;;;;;5092015;28;20052;-76
2023/05/27 06:10:48;;;;;;;5.70;2.58;;;31.70;99.90;;;;;;5093638;28;20028;-79
2023/05/27 06:13:14;;;;;;;4.50;2.90;;;32.30;99.90;;;;;;5075331;28;20028;-79
2023/05/27 06:15:40;;;;;;;9.00;2.70;;;32.70;99.90;;;;;;5075581;28;20031;-79
2023/05/27 06:18:06;;;;;;;8.27;2.45;;;32.80;99.90;;;;;;5093992;28;20077;-78
2023/05/27 06:20:32;;;;;;;6.30;2.63;;;33.30;99.90;;;;;;5094621;28;20046;-80
2023/05/27 06:22:58;;;;;;;12.65;3.47;;;33.70;99.90;;;;;;5094625;28;20035;-79
2023/05/27 06:25:24;;;;;;;14.73;3.75;;;36.60;99.90;;;;;;5075929;28;20060;-80
2023/05/27 06:27:50;;;;;;;9.43;3.35;;;36.70;99.90;;;;;;5094720;28;20028;-78
2023/05/27 06:30:17;;;;;;;11.50;3.47;;;38.00;99.90;;;;;;5110205;28;20190;-80
2023/05/27 06:32:43;;;;;;;7.30;3.08;;;39.30;98.10;;;;;;5094422;28;20048;-78
2023/05/27 06:35:09;;;;;;;13.38;4.97;;;38.50;97.30;;;;;;5093738;28;20111;-80
2023/05/27 06:37:35;;;;;;;15.38;5.82;;;38.30;97.50;;;;;;5094430;28;20024;-78
2023/05/27 06:40:01;;;;;;;13.60;5.07;;;39.40;96.00;;;;;;5108805;28;20020;-77
2023/05/27 06:42:27;;;;;;;8.85;3.80;;;39.90;94.70;;;;;;5094197;28;20024;-79
2023/05/27 06:44:53;;;;;;;9.35;3.13;;;39.30;94.40;;;;;;5093821;28;20491;-79
2023/05/27 06:47:21;;;;;;;8.23;3.60;;;38.40;94.40;;;;;;5108261;28;20428;-78
2023/05/27 06:49:47;;;;;;;9.93;3.80;;;37.30;95.40;;;;;;5074635;28;20122;-79
2023/05/27 06:52:13;;;;;;;11.13;3.45;;;38.60;95.80;;;;;;5072047;28;20173;-76
2023/05/27 06:54:40;;;;;;;12.85;3.55;;;38.50;95.60;;;;;;5092101;28;20028;-74
2023/05/27 06:57:06;;;;;;;10.20;3.35;;;38.10;95.90;;;;;;5093453;28;20058;-78
2023/05/27 06:59:32;;;;;;;11.45;3.10;;;38.70;95.70;;;;;;5093525;28;20379;-77
2023/05/27 07:01:58;;;;;;;5.68;2.83;;;39.30;94.90;;;;;;5092874;28;20077;-73
2023/05/27 07:04:28;;;;;;;9.68;3.10;;;37.90;95.40;;;;;;5092823;28;20028;-82
2023/05/27 07:06:55;;;;;;;8.45;3.00;;;37.50;96.50;;;;;;5094854;28;20028;-75
2023/05/27 07:09:25;;;;;;;10.05;3.58;;;38.40;95.50;;;;;;5092968;28;20358;-72
2023/05/27 07:11:52;;;;;;;9.23;3.50;;;39.20;94.70;;;;;;5075946;28;20140;-73
2023/05/27 07:14:18;;;;;;;6.53;3.30;;;39.10;94.40;;;;;;5093288;28;20032;-73
2023/05/27 07:16:44;;;;;;;7.63;3.00;;;39.10;94.70;;;;;;5093011;28;20427;-73
2023/05/27 07:19:10;;;;;;;9.77;3.10;;;38.10;95.20;;;;;;5093115;28;20027;-76
2023/05/27 07:21:36;;;;;;;7.25;3.50;;;35.40;96.90;;;;;;5093591;28;20039;-74
2023/05/27 07:24:03;;;;;;;8.02;3.30;;;33.80;98.90;;;;;;5074998;28;20030;-75
2023/05/27 07:26:32;;;;;;;14.52;3.92;;;33.50;99.00;;;;;;5092826;28;20437;-74
2023/05/27 07:29:01;;;;;;;19.92;4.15;;;33.80;99.90;;;;;;5093197;28;20101;-74
2023/05/27 07:31:28;;;;;;;8.60;3.55;;;34.10;99.50;;;;;;5093179;28;20471;-76
2023/05/27 07:33:55;;;;;;;10.10;3.95;;;33.60;99.90;;;;;;5091974;28;20110;-77
2023/05/27 07:36:21;;;;;;;11.80;4.20;;;33.60;99.60;;;;;;5090789;28;20016;-77
2023/05/27 07:38:47;;;;;;;11.70;3.95;;;33.50;99.70;;;;;;5073278;28;20099;-78
2023/05/27 07:41:15;;;;;;;9.23;3.78;;;33.10;99.90;;;;;;5068091;28;20029;-76
2023/05/27 07:43:41;;;;;;;10.88;3.92;;;32.70;99.90;;;;;;5090857;28;20116;-76
2023/05/27 07:46:07;;;;;;;8.68;3.83;;;32.20;99.90;;;;;;5092361;28;20031;-76
2023/05/27 07:48:33;;;;;;;10.05;4.30;;;31.50;99.90;;;;;;5091151;28;20207;-76
2023/05/27 07:50:59;;;;;;;;;;;31.50;99.90;;;;;;5090406;28;20039;-76
2023/05/27 07:53:25;;;;;;;9.68;4.20;;;31.30;99.90;;;;;;5087707;28;19934;-75
2023/05/27 07:55:51;;;;;;;;;;;31.00;99.90;;;;;;5071869;28;20020;-77
2023/05/27 07:58:17;;;;;;;7.00;3.95;;;30.70;99.90;;;;;;5089965;28;19915;-77
2023/05/27 08:00:42;;;;;;;;;;;30.70;99.90;;;;;;5089419;28;20053;-78
2023/05/27 08:03:08;;;;;;;9.65;3.75;;;31.20;99.90;;;;;;5070793;28;19991;-76
2023/05/27 08:05:35;;;;;;;8.32;3.97;;;30.90;99.90;;;;;;5088608;28;20073;-74
2023/05/27 08:08:01;;;;;;;10.27;4.15;;;30.80;99.90;;;;;;5090881;28;20027;-76
2023/05/27 08:10:27;;;;;;;;;;;31.00;99.90;;;;;;5091377;28;20040;-76
2023/05/27 08:12:53;;;;;;;7.70;3.80;;;31.20;99.90;;;;;;5089756;28;19949;-76
2023/05/27 08:15:19;;;;;;;11.52;3.72;;;31.40;99.90;;;;;;5090475;28;20036;-76
2023/05/27 08:17:45;;;;;;;5.75;3.42;;;31.00;99.90;;;;;;5073247;28;20030;-72
2023/05/27 08:20:12;;;;;;;6.75;3.60;;;30.70;99.90;;;;;;5112314;27;20028;-70
2023/05/27 08:22:39;;;;;;;9.10;3.40;;;30.40;99.90;;;;;;5072818;28;20179;-73
2023/05/27 08:25:07;;;;;;;6.18;3.40;;;30.50;99.90;;;;;;5085213;28;20483;-67
2023/05/27 08:27:50;;;;;;;9.70;3.75;;;30.40;99.90;;;;;;5086781;28;20043;-70
2023/05/27 08:30:22;;;;;;;5.90;3.42;;;30.20;99.90;;;;;;5089953;28;20032;-70
2023/05/27 08:32:49;;;;;;;5.57;3.53;;;30.20;99.90;;;;;;5074771;28;20027;-71
2023/05/27 08:35:16;;;;;;;9.38;4.03;;;30.30;99.90;;;;;;5068061;28;20328;-70
2023/05/27 08:37:43;;;;;;;7.97;3.58;;;30.50;99.90;;;;;;5092612;28;20284;-70
2023/05/27 08:40:16;;;;;;;8.15;4.00;;;30.50;99.90;;;;;;5109522;27;20032;-71
2023/05/27 08:42:42;;;;;;;9.75;4.72;;;30.50;99.90;;;;;;5091171;28;20076;-72
2023/05/27 08:45:12;;;;;;;11.35;4.50;;;30.20;99.90;;;;;;5097978;28;20140;-69
2023/05/27 08:47:39;;;;;;;9.70;3.90;;;30.30;99.90;;;;;;5089454;28;20197;-71
2023/05/27 08:50:07;;;;;;;7.95;3.97;;;30.80;99.90;;;;;;5066925;28;20040;-69
2023/05/27 08:52:36;;;;;;;6.45;4.00;;;30.40;99.90;;;;;;5087289;28;20030;-70
2023/05/27 08:55:03;;;;;;;8.43;3.90;;;29.80;99.90;;;;;;5091171;28;20532;-72
2023/05/27 08:57:30;;;;;;;8.75;4.32;;;29.60;99.90;;;;;;5090078;28;20031;-70
2023/05/27 08:59:56;;;;;;;8.88;3.90;;;29.70;99.90;;;;;;5089208;28;20103;-72
2023/05/27 09:02:23;;;;;;;10.70;3.97;;;29.90;99.90;;;;;;5087147;28;20039;-72
2023/05/27 09:04:50;;;;;;;6.75;3.50;;;29.70;99.90;;;;;;5088562;28;20036;-69
2023/05/27 09:07:19;;;;;;;9.32;4.15;;;29.50;99.90;;;;;;5088360;28;20017;-73
2023/05/27 09:09:57;;;;;;;7.68;4.18;;;29.60;99.90;;;;;;5088888;28;20079;-70
2023/05/27 09:12:29;;;;;;;9.68;4.50;;;29.70;99.90;;;;;;5089815;28;20028;-74
2023/05/27 09:14:55;;;;;;;8.13;3.80;;;29.80;99.90;;;;;;5090988;28;20383;-66
2023/05/27 09:17:26;;;;;;;10.88;4.28;;;29.00;99.90;;;;;;5091177;28;20020;-72
2023/05/27 09:19:53;;;;;;;9.88;4.25;;;29.50;99.90;;;;;;5090589;28;20028;-71
2023/05/27 09:22:30;;;;;;;8.52;4.55;;;29.70;99.90;;;;;;5091169;28;20465;-70
2023/05/27 09:24:57;;;;;;;9.05;4.07;;;29.50;99.90;;;;;;5091826;28;20027;-72
2023/05/27 09:27:31;;;;;;;7.88;4.03;;;29.50;99.90;;;;;;5092965;28;20023;-70
2023/05/27 09:30:06;;;;;;;10.52;4.38;;;29.50;99.90;;;;;;5093805;28;20040;-70
2023/05/27 09:32:33;;;;;;;9.93;4.82;;;29.20;99.90;;;;;;5087189;28;20032;-72
2023/05/27 09:35:04;;;;;;;10.68;4.70;;;29.40;99.90;;;;;;5092996;28;20039;-71
2023/05/27 09:37:32;;;;;;;9.18;4.75;;;29.50;99.90;;;;;;5074444;28;20107;-72
2023/05/27 09:39:59;;;;;;;9.02;4.35;;;29.60;99.90;;;;;;5092723;28;20456;-73
2023/05/27 09:42:26;;;;;;;9.25;4.25;;;29.40;99.90;;;;;;5072850;28;20118;-76
2023/05/27 09:44:53;;;;;;;;;;;29.00;99.90;;;;;;5090746;28;20027;-72
2023/05/27 09:47:22;;;;;;;9.40;4.85;;;28.80;99.90;;;;;;5072464;28;19904;-71
2023/05/27 09:49:52;;;;;;;13.55;5.00;;;29.30;99.90;;;;;;5090515;28;20755;-72
2023/05/27 09:52:21;;;;;;;13.52;4.95;;;29.30;99.90;;;;;;5090816;28;20027;-73
2023/05/27 09:54:49;;;;;;;7.85;4.35;;;29.40;99.90;;;;;;5095764;28;20039;-74
2023/05/27 09:57:16;;;;;;;10.32;4.45;;;29.30;99.90;;;;;;5071662;28;20023;-70
2023/05/27 09:59:43;;;;;;;11.27;4.95;;;29.50;99.90;;;;;;5091684;28;20119;-69
2023/05/27 10:02:16;;;;;;;9.82;4.60;;;29.20;99.90;;;;;;5091754;28;20070;-68
2023/05/27 10:04:43;;;;;;;12.05;4.45;;;29.30;99.90;;;;;;5080849;28;20087;-72
2023/05/27 10:07:10;;;;;;;13.82;4.82;;;29.30;99.90;;;;;;5071284;28;20165;-66
2023/05/27 10:09:36;;;;;;;8.57;4.22;;;29.30;99.90;;;;;;5090192;28;20087;-69
2023/05/27 10:12:04;;;;;;;10.52;4.22;;;29.50;99.90;;;;;;5091220;28;20066;-70
2023/05/27 10:14:31;;;;;;;7.80;4.45;;;29.30;99.90;;;;;;5073936;28;20058;-72
2023/05/27 10:16:57;;;;;;;10.40;4.03;;;29.10;99.90;;;;;;5075050;28;20020;-67
2023/05/27 10:19:23;;;;;;;8.85;4.18;;;29.00;99.90;;;;;;5091741;28;20032;-67
2023/05/27 10:21:51;;;;;;;12.02;3.78;;;29.00;99.90;;;;;;5093443;28;20017;-69
2023/05/27 10:24:17;;;;;;;8.82;3.50;;;28.90;99.90;;;;;;5088114;28;20024;-68
2023/05/27 10:26:48;;;;;;;7.40;3.97;;;29.20;99.90;;;;;;5093175;28;20020;-72
2023/05/27 10:29:17;;;;;;;10.93;3.83;;;29.40;99.90;;;;;;5093850;28;20036;-69
2023/05/27 10:31:47;;;;;;;9.32;3.80;;;29.20;99.90;;;;;;5093876;28;20352;-68
2023/05/27 10:34:16;;;;;;;9.10;3.95;;;28.90;99.90;;;;;;5093509;28;20020;-67
2023/05/27 10:36:45;;;;;;;10.13;3.72;;;29.20;99.90;;;;;;5088885;28;20021;-67
2023/05/27 10:39:19;;;;;;;9.65;4.63;;;29.50;99.90;;;;;;5092059;28;20020;-70
2023/05/27 10:41:56;;;;;;;9.95;3.72;;;29.50;99.90;;;;;;5090861;28;20027;-70
2023/05/27 10:44:35;;;;;;;8.45;3.90;;;29.70;99.90;;;;;;5075083;28;20480;-68
2023/05/27 10:47:02;;;;;;;9.98;3.75;;;29.90;99.90;;;;;;5092824;28;20039;-69
2023/05/27 10:49:35;;;;;;;9.75;4.00;;;30.00;99.90;;;;;;5092415;28;20082;-69
2023/05/27 10:52:15;;;;;;;10.68;3.75;;;29.90;99.90;;;;;;5076998;28;20017;-71
2023/05/27 10:54:46;;;;;;;7.43;3.60;;;29.60;99.90;;;;;;5072975;28;20147;-69
2023/05/27 10:57:13;;;;;;;6.60;3.90;;;29.80;99.90;;;;;;5072824;28;20140;-68
2023/05/27 10:59:50;;;;;;;9.07;3.67;;;29.90;99.90;;;;;;5072915;28;20046;-70
2023/05/27 11:02:17;;;;;;;9.57;3.92;;;30.10;99.90;;;;;;5072677;28;20032;-70
2023/05/27 11:04:43;;;;;;;8.82;3.70;;;30.10;99.90;;;;;;5071460;28;20038;-70
2023/05/27 11:07:09;;;;;;;;;;;30.00;99.90;;;;;;5073260;28;20119;-69
2023/05/27 11:09:55;;;;;;;7.38;3.33;;;30.30;99.90;;;;;;5079613;28;19924;-69
2023/05/27 11:12:22;;;;;;;9.52;4.22;;;30.40;99.90;;;;;;5091693;28;20111;-69
2023/05/27 11:14:50;;;;;;;12.93;4.38;;;30.10;99.90;;;;;;5091908;28;20536;-69
2023/05/27 11:17:17;;;;;;;15.55;8.45;;;30.00;99.90;;;;;;5091982;28;20020;-70
2023/05/27 11:19:46;;;;;;;15.90;9.05;;;29.40;99.90;;;;;;5093071;28;20032;-71
2023/05/27 11:22:13;;;;;;;14.07;6.60;;;29.20;99.90;;;;;;5091923;28;20060;-71
2023/05/27 11:24:40;;;;;;;13.82;5.60;;;29.20;99.90;;;;;;5073746;28;20130;-68
2023/05/27 11:27:14;;;;;;;13.57;6.72;;;29.30;99.90;;;;;;5091947;28;20387;-69
2023/05/27 11:29:53;;;;;;;16.08;4.70;;;29.30;99.90;;;;;;5071975;28;20161;-71
2023/05/27 11:32:20;;;;;;;14.48;5.40;;;29.10;99.90;;;;;;5090737;28;20205;-70
2023/05/27 11:34:47;;;;;;;13.75;4.30;;;28.70;99.90;;;;;;5073632;28;20139;-70
2023/05/27 11:37:13;;;;;;;17.02;5.00;;;28.10;99.90;;;;;;5091708;28;20020;-70
2023/05/27 11:39:50;;;;;;;;;;;28.00;99.90;;;;;;5091941;28;20102;-68
2023/05/27 11:42:24;;;;;;;14.57;5.00;;;28.30;99.90;;;;;;5092025;28;19911;-69
2023/05/27 11:44:53;;;;;;;7.90;4.05;;;28.60;99.90;;;;;;5054476;28;20465;-69
2023/05/27 11:47:21;;;;;;;13.25;4.43;;;28.70;99.90;;;;;;5075767;28;20028;-69
2023/05/27 11:49:50;;;;;;;12.50;4.57;;;28.80;99.90;;;;;;5106877;28;20032;-70
2023/05/27 11:52:17;;;;;;;11.18;4.65;;;28.70;99.90;;;;;;5091554;28;20023;-67
2023/05/27 11:54:43;;;;;;;16.33;4.43;;;28.00;99.90;;;;;;5090302;28;20038;-70
2023/05/27 11:57:12;;;;;;;15.70;4.60;;;27.70;99.90;;;;;;5073122;28;20020;-67
2023/05/27 11:59:39;;;;;;;16.35;4.63;;;27.40;99.90;;;;;;5072960;28;20035;-69
2023/05/27 12:02:05;;;;;;;;;;;27.50;99.90;;;;;;5073989;28;20034;-69
2023/05/27 12:04:31;;;;;;;17.35;4.97;;;27.30;99.90;;;;;;5074042;28;20255;-68
2023/05/27 12:06:58;;;;;;;13.50;4.40;;;27.20;99.90;;;;;;5092512;28;20499;-70
2023/05/27 12:09:24;;;;;;;;;;;27.40;99.90;;;;;;5091835;28;20543;-70
2023/05/27 12:11:50;;;;;;;17.52;5.28;;;27.50;99.90;;;;;;5091322;28;19912;-70
2023/05/27 12:14:16;;;;;;;16.30;5.13;;;27.70;99.90;;;;;;5092812;28;20115;-71
2023/05/27 12:16:42;;;;;;;15.13;5.22;;;27.60;99.90;;;;;;5092766;28;20016;-69
2023/05/27 12:19:09;;;;;;;14.20;4.90;;;27.20;99.90;;;;;;5085993;28;20088;-69
2023/05/27 12:21:37;;;;;;;15.02;5.00;;;26.40;99.90;;;;;;5091692;28;20028;-71
2023/05/27 12:24:03;;;;;;;16.90;5.05;;;26.40;99.90;;;;;;5090518;28;20144;-68
2023/05/27 12:26:30;;;;;;;18.75;5.32;;;26.60;99.90;;;;;;5092255;28;20522;-69
2023/05/27 12:28:56;;;;;;;18.88;5.18;;;27.20;99.90;;;;;;5090935;28;20028;-68
2023/05/27 12:31:22;;;;;;;17.20;5.50;;;27.40;99.90;;;;;;5091809;28;20028;-68
2023/05/27 12:33:49;;;;;;;19.77;4.97;;;27.30;99.90;;;;;;5090460;28;20093;-68
2023/05/27 12:36:15;;;;;;;14.75;5.00;;;27.50;99.90;;;;;;5072079;28;20091;-67
2023/05/27 12:38:41;;;;;;;16.15;5.20;;;27.60;99.90;;;;;;5084181;28;20103;-68
2023/05/27 12:41:08;;;;;;;21.40;5.93;;;27.50;99.90;;;;;;5076119;28;20502;-68
2023/05/27 12:43:34;;;;;;;;;;;27.80;99.90;;;;;;5090958;28;20154;-68
2023/05/27 12:46:00;;;;;;;18.23;5.05;;;28.00;99.90;;;;;;5107780;28;20394;-68
2023/05/27 12:48:26;;;;;;;18.95;5.13;;;28.10;99.90;;;;;;5090742;28;20028;-70
2023/05/27 12:50:52;;;;;;;17.20;5.22;;;28.20;99.90;;;;;;5089424;28;20073;-68